sensor_id;sensor_type;location;lat;lon;timestamp;pressure;altitude;pressure_sealevel;temperature;humidity
64792;BME280;51226;47.504;19.074;2022-10-16T00:00:55;100712.75;;;16.01;58.44
64792;BME280;51226;47.504;19.074;2022-10-16T00:04:09;100709.28;;;16.02;58.46
64792;BME280;51226;47.504;19.074;2022-10-16T00:07:12;100710.19;;;16.04;58.21
64792;BME280;51226;47.504;19.074;2022-10-16T00:10:15;100707.31;;;15.93;58.28
64792;BME280;51226;47.504;19.074;2022-10-16T00:13:17;100707.34;;;15.95;58.25
64792;BME280;51226;47.504;19.074;2022-10-16T00:16:22;100707.28;;;15.92;58.42
64792;BME280;51226;47.504;19.074;2022-10-16T00:19:25;100709.13;;;15.96;58.27
64792;BME280;51226;47.504;19.074;2022-10-16T00:22:28;100705.69;;;16.00;58.08
64792;BME280;51226;47.504;19.074;2022-10-16T00:25:31;100707.38;;;15.97;58.25
64792;BME280;51226;47.504;19.074;2022-10-16T00:28:35;100710.88;;;15.96;58.25
64792;BME280;51226;47.504;19.074;2022-10-16T00:31:38;100719.69;;;15.98;58.16
64792;BME280;51226;47.504;19.074;2022-10-16T00:34:41;100724.87;;;15.95;58.17
64792;BME280;51226;47.504;19.074;2022-10-16T00:37:43;100724.78;;;15.90;58.35
64792;BME280;51226;47.504;19.074;2022-10-16T00:40:46;100731.72;;;15.86;58.28
64792;BME280;51226;47.504;19.074;2022-10-16T00:43:50;100735.28;;;15.90;58.15
64792;BME280;51226;47.504;19.074;2022-10-16T00:46:53;100737.00;;;15.88;58.04
64792;BME280;51226;47.504;19.074;2022-10-16T00:50:01;100739.53;;;15.83;58.04
64792;BME280;51226;47.504;19.074;2022-10-16T00:53:05;100732.59;;;15.87;57.82
64792;BME280;51226;47.504;19.074;2022-10-16T00:56:08;100731.66;;;15.83;57.79
64792;BME280;51226;47.504;19.074;2022-10-16T00:59:23;100737.63;;;15.76;58.08
64792;BME280;51226;47.504;19.074;2022-10-16T01:02:27;100739.50;;;15.82;57.88
64792;BME280;51226;47.504;19.074;2022-10-16T01:05:39;100743.78;;;15.77;58.01
64792;BME280;51226;47.504;19.074;2022-10-16T01:12:10;100749.03;;;15.77;57.85
64792;BME280;51226;47.504;19.074;2022-10-16T01:15:32;100753.41;;;15.76;57.68
64792;BME280;51226;47.504;19.074;2022-10-16T01:18:45;100746.44;;;15.78;57.55
64792;BME280;51226;47.504;19.074;2022-10-16T01:21:51;100749.78;;;15.72;57.73
64792;BME280;51226;47.504;19.074;2022-10-16T01:24:58;100754.88;;;15.65;57.78
64792;BME280;51226;47.504;19.074;2022-10-16T01:28:05;100759.41;;;15.70;57.70
64792;BME280;51226;47.504;19.074;2022-10-16T01:31:15;100755.47;;;15.53;58.10
64792;BME280;51226;47.504;19.074;2022-10-16T01:34:25;100767.62;;;15.48;58.17
64792;BME280;51226;47.504;19.074;2022-10-16T01:40:44;100763.84;;;15.36;58.42
64792;BME280;51226;47.504;19.074;2022-10-16T01:44:14;100762.03;;;15.34;58.16
64792;BME280;51226;47.504;19.074;2022-10-16T01:47:14;100764.34;;;15.22;58.59
64792;BME280;51226;47.504;19.074;2022-10-16T01:50:19;100766.78;;;15.14;58.83
64792;BME280;51226;47.504;19.074;2022-10-16T01:53:23;100768.50;;;15.12;58.94
64792;BME280;51226;47.504;19.074;2022-10-16T01:56:29;100773.59;;;15.06;59.00
64792;BME280;51226;47.504;19.074;2022-10-16T01:59:32;100773.81;;;15.15;58.74
64792;BME280;51226;47.504;19.074;2022-10-16T02:02:40;100785.66;;;14.99;59.20
64792;BME280;51226;47.504;19.074;2022-10-16T02:05:56;100784.69;;;14.95;59.32
64792;BME280;51226;47.504;19.074;2022-10-16T02:09:00;100796.13;;;14.97;59.11
64792;BME280;51226;47.504;19.074;2022-10-16T02:12:10;100790.63;;;14.88;59.25
64792;BME280;51226;47.504;19.074;2022-10-16T02:15:15;100794.03;;;14.84;59.39
64792;BME280;51226;47.504;19.074;2022-10-16T02:18:18;100800.09;;;14.83;59.58
64792;BME280;51226;47.504;19.074;2022-10-16T02:21:26;100797.44;;;14.81;59.75
64792;BME280;51226;47.504;19.074;2022-10-16T02:24:51;100785.97;;;14.78;59.90
64792;BME280;51226;47.504;19.074;2022-10-16T02:28:03;100795.50;;;14.74;60.05
64792;BME280;51226;47.504;19.074;2022-10-16T02:31:11;100781.50;;;14.74;60.06
64792;BME280;51226;47.504;19.074;2022-10-16T02:34:16;100792.75;;;14.70;60.29
64792;BME280;51226;47.504;19.074;2022-10-16T02:37:21;100790.06;;;14.68;60.42
64792;BME280;51226;47.504;19.074;2022-10-16T02:40:24;100797.03;;;14.66;60.41
64792;BME280;51226;47.504;19.074;2022-10-16T02:43:27;100801.22;;;14.59;60.46
64792;BME280;51226;47.504;19.074;2022-10-16T02:46:30;100797.72;;;14.59;60.36
64792;BME280;51226;47.504;19.074;2022-10-16T02:49:33;100806.47;;;14.59;60.12
64792;BME280;51226;47.504;19.074;2022-10-16T02:52:36;100793.13;;;14.53;60.26
64792;BME280;51226;47.504;19.074;2022-10-16T02:55:38;100799.13;;;14.49;60.30
64792;BME280;51226;47.504;19.074;2022-10-16T02:58:42;100802.44;;;14.42;60.46
64792;BME280;51226;47.504;19.074;2022-10-16T03:01:45;100809.34;;;14.40;60.48
64792;BME280;51226;47.504;19.074;2022-10-16T03:04:47;100805.75;;;14.36;60.54
64792;BME280;51226;47.504;19.074;2022-10-16T03:07:50;100806.72;;;14.38;60.48
64792;BME280;51226;47.504;19.074;2022-10-16T03:10:54;100809.25;;;14.35;60.64
64792;BME280;51226;47.504;19.074;2022-10-16T03:13:57;100804.69;;;14.30;60.66
64792;BME280;51226;47.504;19.074;2022-10-16T03:17:00;100811.59;;;14.26;60.75
64792;BME280;51226;47.504;19.074;2022-10-16T03:20:03;100815.81;;;14.21;60.95
64792;BME280;51226;47.504;19.074;2022-10-16T03:23:06;100820.06;;;14.17;61.19
64792;BME280;51226;47.504;19.074;2022-10-16T03:26:11;100823.53;;;14.16;61.31
64792;BME280;51226;47.504;19.074;2022-10-16T03:29:14;100817.25;;;14.11;61.41
64792;BME280;51226;47.504;19.074;2022-10-16T03:32:17;100834.69;;;14.09;61.46
64792;BME280;51226;47.504;19.074;2022-10-16T03:35:21;100831.97;;;14.06;61.54
64792;BME280;51226;47.504;19.074;2022-10-16T03:38:24;100838.91;;;14.04;61.56
64792;BME280;51226;47.504;19.074;2022-10-16T03:41:26;100850.22;;;14.03;61.52
64792;BME280;51226;47.504;19.074;2022-10-16T03:44:29;100852.75;;;14.00;61.38
64792;BME280;51226;47.504;19.074;2022-10-16T03:47:32;100855.28;;;13.97;61.59
64792;BME280;51226;47.504;19.074;2022-10-16T03:50:36;100853.41;;;13.93;61.69
64792;BME280;51226;47.504;19.074;2022-10-16T03:53:38;100853.19;;;13.86;61.62
64792;BME280;51226;47.504;19.074;2022-10-16T03:56:42;100857.50;;;13.84;61.59
64792;BME280;51226;47.504;19.074;2022-10-16T03:59:45;100856.63;;;13.84;61.59
64792;BME280;51226;47.504;19.074;2022-10-16T04:02:48;100855.78;;;13.85;61.56
64792;BME280;51226;47.504;19.074;2022-10-16T04:05:51;100855.62;;;13.80;61.58
64792;BME280;51226;47.504;19.074;2022-10-16T04:08:53;100857.41;;;13.81;61.54
64792;BME280;51226;47.504;19.074;2022-10-16T04:11:56;100857.34;;;13.78;61.63
64792;BME280;51226;47.504;19.074;2022-10-16T04:14:59;100863.25;;;13.73;61.84
64792;BME280;51226;47.504;19.074;2022-10-16T04:18:03;100866.72;;;13.71;61.88
64792;BME280;51226;47.504;19.074;2022-10-16T04:21:07;100870.22;;;13.72;61.58
64792;BME280;51226;47.504;19.074;2022-10-16T04:24:10;100861.38;;;13.68;61.63
64792;BME280;51226;47.504;19.074;2022-10-16T04:27:13;100860.47;;;13.68;61.68
64792;BME280;51226;47.504;19.074;2022-10-16T04:30:16;100866.47;;;13.64;61.82
64792;BME280;51226;47.504;19.074;2022-10-16T04:33:19;100861.94;;;13.60;61.95
64792;BME280;51226;47.504;19.074;2022-10-16T04:36:22;100861.00;;;13.58;62.15
64792;BME280;51226;47.504;19.074;2022-10-16T04:39:29;100868.88;;;13.58;62.10
64792;BME280;51226;47.504;19.074;2022-10-16T04:42:32;100872.13;;;13.50;61.98
64792;BME280;51226;47.504;19.074;2022-10-16T04:45:35;100873.94;;;13.51;61.89
64792;BME280;51226;47.504;19.074;2022-10-16T04:48:38;100875.47;;;13.46;61.61
64792;BME280;51226;47.504;19.074;2022-10-16T04:51:40;100883.31;;;13.45;61.74
64792;BME280;51226;47.504;19.074;2022-10-16T04:54:43;100878.88;;;13.44;61.68
64792;BME280;51226;47.504;19.074;2022-10-16T04:57:47;100889.38;;;13.44;61.55
64792;BME280;51226;47.504;19.074;2022-10-16T05:00:50;100898.00;;;13.41;61.46
64792;BME280;51226;47.504;19.074;2022-10-16T05:03:52;100896.28;;;13.42;61.50
64792;BME280;51226;47.504;19.074;2022-10-16T05:06:55;100897.00;;;13.38;61.58
64792;BME280;51226;47.504;19.074;2022-10-16T05:09:58;100899.00;;;13.21;62.00
64792;BME280;51226;47.504;19.074;2022-10-16T05:13:00;100895.56;;;13.22;61.77
64792;BME280;51226;47.504;19.074;2022-10-16T05:16:03;100887.75;;;13.23;61.53
64792;BME280;51226;47.504;19.074;2022-10-16T05:19:06;100893.06;;;13.25;61.70
64792;BME280;51226;47.504;19.074;2022-10-16T05:22:29;100895.75;;;13.28;61.85
64792;BME280;51226;47.504;19.074;2022-10-16T05:25:32;100899.34;;;13.30;61.63
64792;BME280;51226;47.504;19.074;2022-10-16T05:28:34;100891.31;;;13.25;61.70
64792;BME280;51226;47.504;19.074;2022-10-16T05:31:37;100907.25;;;13.31;61.67
64792;BME280;51226;47.504;19.074;2022-10-16T05:34:40;100909.78;;;13.28;61.68
64792;BME280;51226;47.504;19.074;2022-10-16T05:37:42;100922.97;;;13.31;61.74
64792;BME280;51226;47.504;19.074;2022-10-16T05:40:51;100925.78;;;13.36;61.51
64792;BME280;51226;47.504;19.074;2022-10-16T05:43:57;100916.41;;;13.43;61.45
64792;BME280;51226;47.504;19.074;2022-10-16T05:46:59;100922.63;;;13.46;61.34
64792;BME280;51226;47.504;19.074;2022-10-16T05:50:02;100926.22;;;13.48;61.41
64792;BME280;51226;47.504;19.074;2022-10-16T05:53:06;100925.47;;;13.52;61.49
64792;BME280;51226;47.504;19.074;2022-10-16T05:56:10;100924.81;;;13.58;61.26
64792;BME280;51226;47.504;19.074;2022-10-16T05:59:14;100926.56;;;13.59;61.15
64792;BME280;51226;47.504;19.074;2022-10-16T06:02:16;100926.75;;;13.64;60.86
64792;BME280;51226;47.504;19.074;2022-10-16T06:05:19;100929.41;;;13.65;60.77
64792;BME280;51226;47.504;19.074;2022-10-16T06:08:22;100941.84;;;13.71;60.75
64792;BME280;51226;47.504;19.074;2022-10-16T06:11:28;100942.78;;;13.73;60.55
64792;BME280;51226;47.504;19.074;2022-10-16T06:14:30;100951.84;;;13.83;60.46
64792;BME280;51226;47.504;19.074;2022-10-16T06:17:33;100949.44;;;13.89;60.17
64792;BME280;51226;47.504;19.074;2022-10-16T06:20:37;100956.59;;;13.95;59.98
64792;BME280;51226;47.504;19.074;2022-10-16T06:23:40;100967.09;;;13.95;59.82
64792;BME280;51226;47.504;19.074;2022-10-16T06:26:43;100960.31;;;14.01;59.67
64792;BME280;51226;47.504;19.074;2022-10-16T06:29:46;100962.34;;;14.08;59.50
64792;BME280;51226;47.504;19.074;2022-10-16T06:32:48;100964.31;;;14.16;59.36
64792;BME280;51226;47.504;19.074;2022-10-16T06:35:51;100972.72;;;14.33;58.92
64792;BME280;51226;47.504;19.074;2022-10-16T06:38:54;100982.75;;;14.46;58.21
64792;BME280;51226;47.504;19.074;2022-10-16T06:41:57;100986.72;;;14.59;57.67
64792;BME280;51226;47.504;19.074;2022-10-16T06:45:09;100988.06;;;14.75;57.11
64792;BME280;51226;47.504;19.074;2022-10-16T06:48:12;100996.44;;;14.90;56.79
64792;BME280;51226;47.504;19.074;2022-10-16T06:51:19;100996.84;;;15.04;56.22
64792;BME280;51226;47.504;19.074;2022-10-16T06:54:22;100997.31;;;15.21;55.82
64792;BME280;51226;47.504;19.074;2022-10-16T06:57:25;100997.59;;;15.30;54.90
64792;BME280;51226;47.504;19.074;2022-10-16T07:00:28;100999.72;;;15.44;54.67
64792;BME280;51226;47.504;19.074;2022-10-16T07:03:31;100999.41;;;15.65;54.09
64792;BME280;51226;47.504;19.074;2022-10-16T07:06:34;100999.63;;;15.72;53.45
64792;BME280;51226;47.504;19.074;2022-10-16T07:09:37;101014.31;;;15.96;52.67
64792;BME280;51226;47.504;19.074;2022-10-16T07:12:40;101015.63;;;16.14;52.63
64792;BME280;51226;47.504;19.074;2022-10-16T07:15:43;101015.03;;;16.24;51.50
64792;BME280;51226;47.504;19.074;2022-10-16T07:18:46;101017.19;;;16.42;51.16
64792;BME280;51226;47.504;19.074;2022-10-16T07:21:50;101022.81;;;16.56;50.83
64792;BME280;51226;47.504;19.074;2022-10-16T07:24:53;101025.31;;;16.86;50.22
64792;BME280;51226;47.504;19.074;2022-10-16T07:27:55;101037.81;;;17.36;49.22
64792;BME280;51226;47.504;19.074;2022-10-16T07:31:03;101024.97;;;17.54;48.28
64792;BME280;51226;47.504;19.074;2022-10-16T07:34:10;101031.78;;;17.87;47.54
64792;BME280;51226;47.504;19.074;2022-10-16T07:37:13;101053.91;;;18.43;46.52
64792;BME280;51226;47.504;19.074;2022-10-16T07:40:17;101057.22;;;18.32;45.57
64792;BME280;51226;47.504;19.074;2022-10-16T07:43:20;101052.59;;;18.71;44.78
64792;BME280;51226;47.504;19.074;2022-10-16T07:46:23;101041.00;;;21.13;40.46
64792;BME280;51226;47.504;19.074;2022-10-16T07:49:26;101040.28;;;23.43;36.00
64792;BME280;51226;47.504;19.074;2022-10-16T07:52:28;101046.06;;;25.17;33.20
64792;BME280;51226;47.504;19.074;2022-10-16T07:55:31;101049.12;;;26.74;29.68
64792;BME280;51226;47.504;19.074;2022-10-16T07:58:34;101048.25;;;29.08;26.91
64792;BME280;51226;47.504;19.074;2022-10-16T08:01:40;101043.94;;;32.61;22.07
64792;BME280;51226;47.504;19.074;2022-10-16T08:04:46;101043.34;;;36.44;18.41
64792;BME280;51226;47.504;19.074;2022-10-16T08:07:49;101050.28;;;39.26;15.62
64792;BME280;51226;47.504;19.074;2022-10-16T08:10:52;101049.12;;;40.75;14.07
64792;BME280;51226;47.504;19.074;2022-10-16T08:13:55;101049.19;;;41.77;13.14
64792;BME280;51226;47.504;19.074;2022-10-16T08:16:58;101053.06;;;41.52;12.98
64792;BME280;51226;47.504;19.074;2022-10-16T08:20:02;101050.19;;;40.50;13.74
64792;BME280;51226;47.504;19.074;2022-10-16T08:23:05;101053.50;;;39.94;14.17
64792;BME280;51226;47.504;19.074;2022-10-16T08:26:08;101055.19;;;39.21;14.82
64792;BME280;51226;47.504;19.074;2022-10-16T08:29:13;101068.16;;;39.18;14.72
64792;BME280;51226;47.504;19.074;2022-10-16T08:32:16;101057.47;;;39.77;14.51
64792;BME280;51226;47.504;19.074;2022-10-16T08:35:20;101072.69;;;41.01;13.19
64792;BME280;51226;47.504;19.074;2022-10-16T08:38:23;101070.31;;;42.63;11.85
64792;BME280;51226;47.504;19.074;2022-10-16T08:48:55;101070.53;;;45.85;9.59
64792;BME280;51226;47.504;19.074;2022-10-16T08:51:59;101068.00;;;45.64;9.68
64792;BME280;51226;47.504;19.074;2022-10-16T08:55:03;101062.66;;;45.90;9.44
64792;BME280;51226;47.504;19.074;2022-10-16T08:58:17;101063.84;;;46.05;9.23
64792;BME280;51226;47.504;19.074;2022-10-16T09:01:22;101071.88;;;45.71;9.40
64792;BME280;51226;47.504;19.074;2022-10-16T09:14:49;101068.75;;;37.47;15.37
64792;BME280;51226;47.504;19.074;2022-10-16T09:21:16;101077.31;;;33.41;19.60
64792;BME280;51226;47.504;19.074;2022-10-16T09:24:23;101072.50;;;32.01;20.93
64792;BME280;51226;47.504;19.074;2022-10-16T09:27:30;101070.06;;;31.24;21.87
64792;BME280;51226;47.504;19.074;2022-10-16T09:30:33;101066.91;;;30.60;22.75
64792;BME280;51226;47.504;19.074;2022-10-16T09:33:37;101066.81;;;30.35;23.11
64792;BME280;51226;47.504;19.074;2022-10-16T09:36:44;101062.84;;;29.92;23.98
64792;BME280;51226;47.504;19.074;2022-10-16T09:39:51;101059.72;;;29.78;24.63
64792;BME280;51226;47.504;19.074;2022-10-16T09:43:03;101066.63;;;29.86;24.31
64792;BME280;51226;47.504;19.074;2022-10-16T09:49:26;101070.63;;;29.71;24.81
64792;BME280;51226;47.504;19.074;2022-10-16T09:52:30;101075.13;;;29.71;24.71
64792;BME280;51226;47.504;19.074;2022-10-16T09:55:33;101077.97;;;29.66;24.50
64792;BME280;51226;47.504;19.074;2022-10-16T09:58:35;101072.56;;;29.66;24.60
64792;BME280;51226;47.504;19.074;2022-10-16T10:01:43;101079.91;;;29.30;25.09
64792;BME280;51226;47.504;19.074;2022-10-16T10:04:51;101086.38;;;29.24;24.98
64792;BME280;51226;47.504;19.074;2022-10-16T10:08:01;101081.75;;;28.62;25.98
64792;BME280;51226;47.504;19.074;2022-10-16T10:11:11;101086.44;;;28.52;26.14
64792;BME280;51226;47.504;19.074;2022-10-16T10:14:18;101079.75;;;28.70;26.17
64792;BME280;51226;47.504;19.074;2022-10-16T10:17:23;101072.34;;;28.78;25.87
64792;BME280;51226;47.504;19.074;2022-10-16T10:20:32;101072.94;;;28.90;26.10
64792;BME280;51226;47.504;19.074;2022-10-16T10:23:36;101054.41;;;28.44;26.47
64792;BME280;51226;47.504;19.074;2022-10-16T10:27:10;101067.13;;;28.74;26.50
64792;BME280;51226;47.504;19.074;2022-10-16T10:33:31;101054.25;;;28.85;26.35
64792;BME280;51226;47.504;19.074;2022-10-16T10:36:40;101057.09;;;29.12;25.83
64792;BME280;51226;47.504;19.074;2022-10-16T10:43:43;101055.75;;;28.26;26.75
64792;BME280;51226;47.504;19.074;2022-10-16T10:46:51;101052.19;;;28.63;26.39
64792;BME280;51226;47.504;19.074;2022-10-16T10:50:10;101046.56;;;28.73;26.26
64792;BME280;51226;47.504;19.074;2022-10-16T10:56:51;101057.09;;;28.80;26.36
64792;BME280;51226;47.504;19.074;2022-10-16T11:00:21;101059.09;;;28.72;26.25
64792;BME280;51226;47.504;19.074;2022-10-16T11:03:42;101046.22;;;28.85;26.04
64792;BME280;51226;47.504;19.074;2022-10-16T11:06:52;101052.06;;;29.01;26.00
64792;BME280;51226;47.504;19.074;2022-10-16T11:10:03;101054.56;;;29.07;25.81
64792;BME280;51226;47.504;19.074;2022-10-16T11:16:27;101049.00;;;28.82;26.09
64792;BME280;51226;47.504;19.074;2022-10-16T11:19:42;101043.19;;;28.64;26.56
64792;BME280;51226;47.504;19.074;2022-10-16T11:22:53;101030.47;;;28.71;26.48
64792;BME280;51226;47.504;19.074;2022-10-16T11:26:04;101037.09;;;28.92;26.41
64792;BME280;51226;47.504;19.074;2022-10-16T11:29:17;101030.16;;;29.15;26.36
64792;BME280;51226;47.504;19.074;2022-10-16T11:32:34;101031.62;;;29.27;25.68
64792;BME280;51226;47.504;19.074;2022-10-16T11:35:53;101020.47;;;29.09;25.93
64792;BME280;51226;47.504;19.074;2022-10-16T11:42:21;101018.59;;;28.80;25.98
64792;BME280;51226;47.504;19.074;2022-10-16T11:45:49;101020.06;;;28.60;26.74
64792;BME280;51226;47.504;19.074;2022-10-16T11:49:11;101020.88;;;28.62;26.52
64792;BME280;51226;47.504;19.074;2022-10-16T11:52:39;101019.78;;;28.70;26.61
64792;BME280;51226;47.504;19.074;2022-10-16T11:55:44;101021.44;;;28.75;26.19
64792;BME280;51226;47.504;19.074;2022-10-16T11:59:17;101016.91;;;28.77;26.25
64792;BME280;51226;47.504;19.074;2022-10-16T12:09:26;101014.56;;;27.09;28.61
64792;BME280;51226;47.504;19.074;2022-10-16T12:15:39;101009.66;;;27.71;28.07
64792;BME280;51226;47.504;19.074;2022-10-16T12:19:18;101005.03;;;27.78;27.84
64792;BME280;51226;47.504;19.074;2022-10-16T12:22:21;101001.34;;;27.84;27.52
64792;BME280;51226;47.504;19.074;2022-10-16T12:28:27;100999.69;;;27.38;27.78
64792;BME280;51226;47.504;19.074;2022-10-16T12:31:47;101010.88;;;27.14;28.36
64792;BME280;51226;47.504;19.074;2022-10-16T12:35:04;101000.78;;;27.29;28.53
64792;BME280;51226;47.504;19.074;2022-10-16T12:41:37;100994.56;;;26.83;29.12
64792;BME280;51226;47.504;19.074;2022-10-16T12:44:42;100996.53;;;27.17;28.80
64792;BME280;51226;47.504;19.074;2022-10-16T12:47:49;100998.22;;;27.21;28.25
64792;BME280;51226;47.504;19.074;2022-10-16T12:50:52;100994.16;;;27.03;28.75
64792;BME280;51226;47.504;19.074;2022-10-16T12:54:02;100996.84;;;27.03;28.56
64792;BME280;51226;47.504;19.074;2022-10-16T13:00:56;101013.81;;;26.52;29.10
64792;BME280;51226;47.504;19.074;2022-10-16T13:04:17;101014.44;;;26.70;29.10
64792;BME280;51226;47.504;19.074;2022-10-16T13:07:31;100999.06;;;26.79;28.81
64792;BME280;51226;47.504;19.074;2022-10-16T13:10:41;101007.84;;;26.88;28.76
64792;BME280;51226;47.504;19.074;2022-10-16T13:30:31;101017.47;;;25.92;30.30
64792;BME280;51226;47.504;19.074;2022-10-16T13:33:39;101015.16;;;25.67;30.42
64792;BME280;51226;47.504;19.074;2022-10-16T13:36:45;101018.19;;;25.43;30.97
64792;BME280;51226;47.504;19.074;2022-10-16T13:39:49;101025.88;;;24.93;31.52
64792;BME280;51226;47.504;19.074;2022-10-16T13:42:53;101021.41;;;23.96;33.04
64792;BME280;51226;47.504;19.074;2022-10-16T13:46:04;101016.13;;;23.86;33.23
64792;BME280;51226;47.504;19.074;2022-10-16T13:49:15;101009.09;;;23.67;33.62
64792;BME280;51226;47.504;19.074;2022-10-16T13:52:20;101018.88;;;23.62;33.48
64792;BME280;51226;47.504;19.074;2022-10-16T13:55:24;101033.97;;;23.66;33.56
64792;BME280;51226;47.504;19.074;2022-10-16T13:58:26;101025.12;;;23.59;33.43
64792;BME280;51226;47.504;19.074;2022-10-16T14:01:33;101025.12;;;23.62;33.38
64792;BME280;51226;47.504;19.074;2022-10-16T14:04:38;101038.44;;;23.61;33.66
64792;BME280;51226;47.504;19.074;2022-10-16T14:07:42;101035.00;;;23.37;34.01
64792;BME280;51226;47.504;19.074;2022-10-16T14:10:51;101028.84;;;23.26;34.20
64792;BME280;51226;47.504;19.074;2022-10-16T14:13:55;101033.31;;;23.11;34.29
64792;BME280;51226;47.504;19.074;2022-10-16T14:16:58;101034.22;;;22.95;34.71
64792;BME280;51226;47.504;19.074;2022-10-16T14:20:04;101025.41;;;22.74;35.15
64792;BME280;51226;47.504;19.074;2022-10-16T14:23:48;101038.75;;;22.44;36.02
64792;BME280;51226;47.504;19.074;2022-10-16T14:26:51;101038.69;;;22.19;36.51
64792;BME280;51226;47.504;19.074;2022-10-16T14:33:40;101030.69;;;21.93;36.96
64792;BME280;51226;47.504;19.074;2022-10-16T14:36:44;101028.94;;;21.87;37.13
64792;BME280;51226;47.504;19.074;2022-10-16T14:39:50;101032.44;;;21.72;37.44
64792;BME280;51226;47.504;19.074;2022-10-16T14:42:56;101036.81;;;21.61;37.97
64792;BME280;51226;47.504;19.074;2022-10-16T14:45:59;101033.25;;;21.51;37.79
64792;BME280;51226;47.504;19.074;2022-10-16T14:49:15;101040.22;;;21.38;37.80
64792;BME280;51226;47.504;19.074;2022-10-16T14:52:19;101044.66;;;21.35;38.07
64792;BME280;51226;47.504;19.074;2022-10-16T14:55:22;101045.50;;;21.26;38.17
64792;BME280;51226;47.504;19.074;2022-10-16T14:58:30;101042.81;;;21.23;38.36
64792;BME280;51226;47.504;19.074;2022-10-16T15:01:33;101032.19;;;21.18;38.47
64792;BME280;51226;47.504;19.074;2022-10-16T15:04:36;101042.78;;;21.12;38.44
64792;BME280;51226;47.504;19.074;2022-10-16T15:07:38;101032.09;;;20.97;38.64
64792;BME280;51226;47.504;19.074;2022-10-16T15:10:42;101036.47;;;20.93;39.00
64792;BME280;51226;47.504;19.074;2022-10-16T15:13:46;101039.94;;;20.78;39.46
64792;BME280;51226;47.504;19.074;2022-10-16T15:16:49;101044.34;;;20.78;39.50
64792;BME280;51226;47.504;19.074;2022-10-16T15:19:52;101053.13;;;20.70;39.75
64792;BME280;51226;47.504;19.074;2022-10-16T15:22:55;101057.53;;;20.68;40.00
64792;BME280;51226;47.504;19.074;2022-10-16T15:25:59;101059.19;;;20.59;40.20
64792;BME280;51226;47.504;19.074;2022-10-16T15:29:02;101062.69;;;20.54;40.29
64792;BME280;51226;47.504;19.074;2022-10-16T15:32:04;101069.72;;;20.51;40.51
64792;BME280;51226;47.504;19.074;2022-10-16T15:35:08;101064.37;;;20.43;40.62
64792;BME280;51226;47.504;19.074;2022-10-16T15:38:12;101072.25;;;20.35;40.77
64792;BME280;51226;47.504;19.074;2022-10-16T15:41:16;101072.19;;;20.28;41.00
64792;BME280;51226;47.504;19.074;2022-10-16T15:44:20;101071.28;;;20.26;41.11
64792;BME280;51226;47.504;19.074;2022-10-16T15:47:25;101075.62;;;20.17;41.21
64792;BME280;51226;47.504;19.074;2022-10-16T15:50:28;101073.00;;;20.21;41.25
64792;BME280;51226;47.504;19.074;2022-10-16T15:53:32;101079.09;;;20.12;41.41
64792;BME280;51226;47.504;19.074;2022-10-16T15:56:36;101075.56;;;20.10;41.55
64792;BME280;51226;47.504;19.074;2022-10-16T15:59:39;101072.81;;;20.02;41.75
64792;BME280;51226;47.504;19.074;2022-10-16T16:02:43;101078.81;;;19.86;42.08
64792;BME280;51226;47.504;19.074;2022-10-16T16:05:46;101077.91;;;19.84;42.12
64792;BME280;51226;47.504;19.074;2022-10-16T16:08:50;101084.03;;;19.79;42.35
64792;BME280;51226;47.504;19.074;2022-10-16T16:11:59;101101.66;;;19.76;42.71
64792;BME280;51226;47.504;19.074;2022-10-16T16:15:08;101103.34;;;19.72;43.22
64792;BME280;51226;47.504;19.074;2022-10-16T16:18:11;101111.22;;;19.65;43.53
64792;BME280;51226;47.504;19.074;2022-10-16T16:21:14;101115.50;;;19.56;43.81
64792;BME280;51226;47.504;19.074;2022-10-16T16:24:17;101129.53;;;19.51;44.18
64792;BME280;51226;47.504;19.074;2022-10-16T16:27:21;101124.16;;;19.43;44.36
64792;BME280;51226;47.504;19.074;2022-10-16T16:30:24;101129.28;;;19.32;44.54
64792;BME280;51226;47.504;19.074;2022-10-16T16:33:29;101133.66;;;19.30;44.63
64792;BME280;51226;47.504;19.074;2022-10-16T16:36:34;101144.19;;;19.27;45.03
64792;BME280;51226;47.504;19.074;2022-10-16T16:39:37;101145.03;;;19.23;45.30
64792;BME280;51226;47.504;19.074;2022-10-16T16:42:39;101152.88;;;19.17;45.57
64792;BME280;51226;47.504;19.074;2022-10-16T16:45:42;101154.56;;;19.12;45.84
64792;BME280;51226;47.504;19.074;2022-10-16T16:48:45;101154.44;;;19.05;46.05
64792;BME280;51226;47.504;19.074;2022-10-16T16:51:47;101161.44;;;19.00;46.38
64792;BME280;51226;47.504;19.074;2022-10-16T16:54:50;101168.41;;;18.95;46.97
64792;BME280;51226;47.504;19.074;2022-10-16T16:57:55;101164.75;;;18.88;47.29
64792;BME280;51226;47.504;19.074;2022-10-16T17:01:00;101170.84;;;18.83;47.61
64792;BME280;51226;47.504;19.074;2022-10-16T17:04:21;101173.34;;;18.77;48.09
64792;BME280;51226;47.504;19.074;2022-10-16T17:07:25;101171.38;;;18.65;48.06
64792;BME280;51226;47.504;19.074;2022-10-16T17:10:29;101179.28;;;18.63;48.09
64792;BME280;51226;47.504;19.074;2022-10-16T17:13:32;101184.47;;;18.59;48.11
64792;BME280;51226;47.504;19.074;2022-10-16T17:16:39;101192.31;;;18.54;48.15
64792;BME280;51226;47.504;19.074;2022-10-16T17:19:46;101186.09;;;18.50;48.45
64792;BME280;51226;47.504;19.074;2022-10-16T17:22:51;101193.91;;;18.46;48.74
64792;BME280;51226;47.504;19.074;2022-10-16T17:25:54;101204.38;;;18.40;49.10
64792;BME280;51226;47.504;19.074;2022-10-16T17:28:59;101206.87;;;18.32;49.24